LESTLESA

Guest
Details From LEST - Santiago
To LESA - Salamanca
Flight Number -
Tags generated
Created
Modified
Stats Distance 175 nm / 324 km
Max Altitude 13,800 ft / 4,206 m
Waypoints 3
Social Downloads 5
Likes 0
Share VATSIM

Download

Looking for another format? Having issues loading an existing format? Contact us
Advertisement - Login to hide

Notes

Basic altitude profile: - Ascent Rate: 2500ft/min - Ascent Speed: 250kts - Cruise Altitude: 35000ft - Cruise Speed: 420kts - Descent Rate: 1500ft/min - Descent Speed: 250kts

Route

LEST MOSEN LESA

ID Type Via Altitude Latitude Longitude Leg Dist Tot Dist Heading (true) Name
O LEST APT - 0 ft / 0 m 42.89780˚ -8.41569˚ - 0 nm - Santiago
MOSEN FIX - 13,800 ft / 4,206 m 41.78654˚ -6.56085˚ 105 nm 105 nm 128° / 130° -
O LESA APT - 0 ft / 0 m 40.95215˚ -5.50164˚ 69 nm 175 nm 136° / 137° Salamanca

Altitude Profile

Advertisement - Login to hide

Weather


0- 5 10 15 20 25 30 35+ Temperature / ° C

Clouds and Precipitation
Forecast for 2018-05-21 00:00 UTC. Updated 2 hours ago

Ground ~20,000 ft ~40,000 ft Winds

LEST

Details ICAO LEST (SCQ)
Name Santiago
Region Spain
Timezone Europe/Madrid (UTC+2.0)
Stats Elevation 1,169 ft / 356 m (AMSL)
Location 42.897797° -8.415691°
Runways 1
Magnetic Variation 2.314° W

METAR

LEST 210130Z 17003KT CAVOK 10/09 Q1011 NOSIG

Decode

TAF

TAF LEST 202300Z 2100/2124 VRB03KT CAVOK TX22/2113Z TN12/2107Z BECMG 2110/2112 25010KT PROB40 TEMPO 2112/2121 SCT030TCU BECMG 2120/2124 VRB03KT

Decode

Departure Runways

ID Width Length Bearing (true) Bearing (mag) Surface Threshold Offset Overrun Length
17 148 ft / 45 m 10,509 ft / 3,203 m 166.04° 168.35° Asphalt 394 ft / 120 m 0 ft / 0 m
35 148 ft / 45 m 10,509 ft / 3,203 m 346.05° 348.36° Asphalt 0 ft / 0 m 197 ft / 60 m

LESA

Details ICAO LESA (SLM)
Name Salamanca
Region Spain
Timezone Europe/Madrid (UTC+2.0)
Stats Elevation 2,595 ft / 791 m (AMSL)
Location 40.952150° -5.501645°
Runways 2
Magnetic Variation 1.239° W

METAR

Not found

TAF

TAF LESA 202300Z 2100/2124 21008KT 9999 FEW040 TX22/2115Z TN09/2106Z PROB40 TEMPO 2110/2120 SHRA SCT040TCU TEMPO 2111/2114 27010KT PROB30 TEMPO 2112/2118 20015G25KT TSRA SCT035CB

Decode

Destination Runways

ID Width Length Bearing (true) Bearing (mag) Surface Threshold Offset Overrun Length
03 197 ft / 60 m 8,252 ft / 2,515 m 27.81° 29.05° Asphalt 0 ft / 0 m 902 ft / 275 m
08 400 ft / 122 m 6,601 ft / 2,012 m 74.07° 75.31° Dirt 0 ft / 0 m 0 ft / 0 m
21 197 ft / 60 m 8,252 ft / 2,515 m 207.82° 209.06° Asphalt 0 ft / 0 m 902 ft / 275 m
26 400 ft / 122 m 6,601 ft / 2,012 m 254.09° 255.33° Dirt 0 ft / 0 m 0 ft / 0 m

Approach Navaids

Runway Type Ident Frequency Range Bearing (true) Bearing (mag) Slope Elevation
21 Localiser IALR 110.10 MHz 18 nm / 33 km 207.81° 209.05° - 2,595 ft / 791 m (AMSL)
21 Glidescope IALR 110.10 MHz 10 nm / 19 km 207.82° 209.06° 3.10° 2,595 ft / 791 m (AMSL)

Popular Alternatives